sensor_id;sensor_type;location;lat;lon;timestamp;P1;durP1;ratioP1;P2;durP2;ratioP2
5303;SDS011;2674;49.722;10.892;2022-10-16T00:01:29;1.40;;;1.30;;
5303;SDS011;2674;49.722;10.892;2022-10-16T00:03:56;5.70;;;1.60;;
5303;SDS011;2674;49.722;10.892;2022-10-16T00:06:24;5.33;;;2.50;;
5303;SDS011;2674;49.722;10.892;2022-10-16T00:08:51;2.00;;;1.80;;
5303;SDS011;2674;49.722;10.892;2022-10-16T00:11:18;3.73;;;1.50;;
5303;SDS011;2674;49.722;10.892;2022-10-16T00:13:47;3.00;;;1.50;;
5303;SDS011;2674;49.722;10.892;2022-10-16T00:16:15;1.70;;;1.33;;
5303;SDS011;2674;49.722;10.892;2022-10-16T00:18:41;3.67;;;1.10;;
5303;SDS011;2674;49.722;10.892;2022-10-16T00:21:18;1.47;;;1.37;;
5303;SDS011;2674;49.722;10.892;2022-10-16T00:23:46;3.13;;;1.20;;
5303;SDS011;2674;49.722;10.892;2022-10-16T00:26:16;4.00;;;1.70;;
5303;SDS011;2674;49.722;10.892;2022-10-16T00:28:45;2.47;;;1.60;;
5303;SDS011;2674;49.722;10.892;2022-10-16T00:31:11;9.03;;;1.77;;
5303;SDS011;2674;49.722;10.892;2022-10-16T00:33:40;2.13;;;1.27;;
5303;SDS011;2674;49.722;10.892;2022-10-16T00:36:07;6.17;;;1.23;;
5303;SDS011;2674;49.722;10.892;2022-10-16T00:38:36;16.13;;;1.83;;
5303;SDS011;2674;49.722;10.892;2022-10-16T00:41:05;2.80;;;1.30;;
5303;SDS011;2674;49.722;10.892;2022-10-16T00:43:38;3.40;;;1.60;;
5303;SDS011;2674;49.722;10.892;2022-10-16T00:46:17;1.40;;;1.30;;
5303;SDS011;2674;49.722;10.892;2022-10-16T00:49:05;5.70;;;1.50;;
5303;SDS011;2674;49.722;10.892;2022-10-16T00:51:35;3.63;;;1.30;;
5303;SDS011;2674;49.722;10.892;2022-10-16T00:54:04;2.23;;;1.17;;
5303;SDS011;2674;49.722;10.892;2022-10-16T00:56:35;1.80;;;1.17;;
5303;SDS011;2674;49.722;10.892;2022-10-16T00:59:02;2.67;;;1.70;;
5303;SDS011;2674;49.722;10.892;2022-10-16T01:01:31;1.50;;;1.13;;
5303;SDS011;2674;49.722;10.892;2022-10-16T01:03:57;2.77;;;1.63;;
5303;SDS011;2674;49.722;10.892;2022-10-16T01:11:33;3.20;;;1.80;;
5303;SDS011;2674;49.722;10.892;2022-10-16T01:14:26;8.83;;;2.17;;
5303;SDS011;2674;49.722;10.892;2022-10-16T01:17:18;1.87;;;1.77;;
5303;SDS011;2674;49.722;10.892;2022-10-16T01:20:39;6.83;;;2.17;;
5303;SDS011;2674;49.722;10.892;2022-10-16T01:31:39;2.07;;;1.70;;
5303;SDS011;2674;49.722;10.892;2022-10-16T01:34:16;2.20;;;1.60;;
5303;SDS011;2674;49.722;10.892;2022-10-16T01:36:56;5.13;;;1.83;;
5303;SDS011;2674;49.722;10.892;2022-10-16T01:39:28;2.53;;;1.50;;
5303;SDS011;2674;49.722;10.892;2022-10-16T01:41:59;3.17;;;1.60;;
5303;SDS011;2674;49.722;10.892;2022-10-16T01:44:31;5.60;;;1.73;;
5303;SDS011;2674;49.722;10.892;2022-10-16T01:46:59;2.80;;;1.80;;
5303;SDS011;2674;49.722;10.892;2022-10-16T01:49:29;6.63;;;1.50;;
5303;SDS011;2674;49.722;10.892;2022-10-16T01:51:58;2.77;;;2.50;;
5303;SDS011;2674;49.722;10.892;2022-10-16T01:54:28;4.93;;;2.17;;
5303;SDS011;2674;49.722;10.892;2022-10-16T01:56:58;2.60;;;1.70;;
5303;SDS011;2674;49.722;10.892;2022-10-16T01:59:26;2.00;;;1.90;;
5303;SDS011;2674;49.722;10.892;2022-10-16T02:01:58;3.80;;;1.60;;
5303;SDS011;2674;49.722;10.892;2022-10-16T02:04:28;5.03;;;2.50;;
5303;SDS011;2674;49.722;10.892;2022-10-16T02:06:57;3.50;;;1.73;;
5303;SDS011;2674;49.722;10.892;2022-10-16T02:09:23;4.40;;;1.87;;
5303;SDS011;2674;49.722;10.892;2022-10-16T02:11:49;4.10;;;2.00;;
5303;SDS011;2674;49.722;10.892;2022-10-16T02:14:19;7.50;;;1.67;;
5303;SDS011;2674;49.722;10.892;2022-10-16T02:16:47;5.20;;;3.80;;
5303;SDS011;2674;49.722;10.892;2022-10-16T02:19:13;7.50;;;4.57;;
5303;SDS011;2674;49.722;10.892;2022-10-16T02:21:44;3.90;;;3.03;;
5303;SDS011;2674;49.722;10.892;2022-10-16T02:24:47;5.30;;;2.40;;
5303;SDS011;2674;49.722;10.892;2022-10-16T02:27:24;1.57;;;1.47;;
5303;SDS011;2674;49.722;10.892;2022-10-16T02:29:55;3.80;;;2.03;;
5303;SDS011;2674;49.722;10.892;2022-10-16T02:32:32;4.30;;;1.63;;
5303;SDS011;2674;49.722;10.892;2022-10-16T02:34:59;6.73;;;2.00;;
5303;SDS011;2674;49.722;10.892;2022-10-16T02:37:26;1.17;;;1.17;;
5303;SDS011;2674;49.722;10.892;2022-10-16T02:39:53;4.10;;;1.77;;
5303;SDS011;2674;49.722;10.892;2022-10-16T02:42:20;4.30;;;1.90;;
5303;SDS011;2674;49.722;10.892;2022-10-16T02:44:52;3.73;;;2.00;;
5303;SDS011;2674;49.722;10.892;2022-10-16T02:47:18;3.53;;;2.07;;
5303;SDS011;2674;49.722;10.892;2022-10-16T02:49:44;2.77;;;1.90;;
5303;SDS011;2674;49.722;10.892;2022-10-16T02:52:10;4.60;;;1.87;;
5303;SDS011;2674;49.722;10.892;2022-10-16T02:54:35;3.50;;;1.83;;
5303;SDS011;2674;49.722;10.892;2022-10-16T02:57:01;4.50;;;2.13;;
5303;SDS011;2674;49.722;10.892;2022-10-16T02:59:27;2.50;;;2.30;;
5303;SDS011;2674;49.722;10.892;2022-10-16T03:01:53;3.40;;;2.20;;
5303;SDS011;2674;49.722;10.892;2022-10-16T03:04:19;7.60;;;1.93;;
5303;SDS011;2674;49.722;10.892;2022-10-16T03:06:45;3.80;;;2.60;;
5303;SDS011;2674;49.722;10.892;2022-10-16T03:09:10;6.47;;;2.17;;
5303;SDS011;2674;49.722;10.892;2022-10-16T03:11:36;7.43;;;2.20;;
5303;SDS011;2674;49.722;10.892;2022-10-16T03:14:02;3.10;;;2.20;;
5303;SDS011;2674;49.722;10.892;2022-10-16T03:16:28;2.20;;;2.00;;
5303;SDS011;2674;49.722;10.892;2022-10-16T03:18:54;2.30;;;1.80;;
5303;SDS011;2674;49.722;10.892;2022-10-16T03:21:20;2.60;;;1.80;;
5303;SDS011;2674;49.722;10.892;2022-10-16T03:23:45;5.07;;;1.70;;
5303;SDS011;2674;49.722;10.892;2022-10-16T03:26:11;8.33;;;3.20;;
5303;SDS011;2674;49.722;10.892;2022-10-16T03:28:37;3.20;;;2.10;;
5303;SDS011;2674;49.722;10.892;2022-10-16T03:31:03;2.90;;;2.40;;
5303;SDS011;2674;49.722;10.892;2022-10-16T03:33:29;9.27;;;2.97;;
5303;SDS011;2674;49.722;10.892;2022-10-16T03:35:55;4.10;;;1.80;;
5303;SDS011;2674;49.722;10.892;2022-10-16T03:38:21;4.00;;;2.00;;
5303;SDS011;2674;49.722;10.892;2022-10-16T03:40:47;3.13;;;2.13;;
5303;SDS011;2674;49.722;10.892;2022-10-16T03:43:13;2.10;;;1.97;;
5303;SDS011;2674;49.722;10.892;2022-10-16T03:45:39;3.30;;;2.10;;
5303;SDS011;2674;49.722;10.892;2022-10-16T03:48:05;8.00;;;2.13;;
5303;SDS011;2674;49.722;10.892;2022-10-16T03:50:31;8.13;;;2.23;;
5303;SDS011;2674;49.722;10.892;2022-10-16T03:52:57;3.67;;;2.00;;
5303;SDS011;2674;49.722;10.892;2022-10-16T03:55:22;6.33;;;1.90;;
5303;SDS011;2674;49.722;10.892;2022-10-16T03:57:48;5.73;;;1.97;;
5303;SDS011;2674;49.722;10.892;2022-10-16T04:00:14;3.67;;;2.20;;
5303;SDS011;2674;49.722;10.892;2022-10-16T04:02:40;3.70;;;2.10;;
5303;SDS011;2674;49.722;10.892;2022-10-16T04:05:06;2.40;;;1.80;;
5303;SDS011;2674;49.722;10.892;2022-10-16T04:07:32;3.60;;;2.03;;
5303;SDS011;2674;49.722;10.892;2022-10-16T04:09:58;6.03;;;3.77;;
5303;SDS011;2674;49.722;10.892;2022-10-16T04:12:24;1.97;;;1.87;;
5303;SDS011;2674;49.722;10.892;2022-10-16T04:14:51;4.00;;;1.50;;
5303;SDS011;2674;49.722;10.892;2022-10-16T04:17:17;3.47;;;2.50;;
5303;SDS011;2674;49.722;10.892;2022-10-16T04:19:43;4.60;;;1.90;;
5303;SDS011;2674;49.722;10.892;2022-10-16T04:22:09;2.33;;;2.23;;
5303;SDS011;2674;49.722;10.892;2022-10-16T04:24:35;5.10;;;1.87;;
5303;SDS011;2674;49.722;10.892;2022-10-16T04:27:01;2.40;;;1.87;;
5303;SDS011;2674;49.722;10.892;2022-10-16T04:29:26;4.10;;;2.60;;
5303;SDS011;2674;49.722;10.892;2022-10-16T04:31:53;5.23;;;2.40;;
5303;SDS011;2674;49.722;10.892;2022-10-16T04:34:19;2.23;;;2.03;;
5303;SDS011;2674;49.722;10.892;2022-10-16T04:36:46;3.60;;;2.40;;
5303;SDS011;2674;49.722;10.892;2022-10-16T04:39:14;4.13;;;2.20;;
5303;SDS011;2674;49.722;10.892;2022-10-16T04:41:40;9.53;;;2.33;;
5303;SDS011;2674;49.722;10.892;2022-10-16T04:44:06;4.20;;;2.60;;
5303;SDS011;2674;49.722;10.892;2022-10-16T04:46:32;6.20;;;2.30;;
5303;SDS011;2674;49.722;10.892;2022-10-16T04:48:58;6.63;;;2.57;;
5303;SDS011;2674;49.722;10.892;2022-10-16T04:51:24;6.27;;;2.00;;
5303;SDS011;2674;49.722;10.892;2022-10-16T04:53:50;2.90;;;2.20;;
5303;SDS011;2674;49.722;10.892;2022-10-16T04:56:16;5.17;;;2.13;;
5303;SDS011;2674;49.722;10.892;2022-10-16T04:58:42;3.73;;;2.17;;
5303;SDS011;2674;49.722;10.892;2022-10-16T05:01:08;6.13;;;1.77;;
5303;SDS011;2674;49.722;10.892;2022-10-16T05:03:34;6.00;;;2.30;;
5303;SDS011;2674;49.722;10.892;2022-10-16T05:06:00;2.43;;;2.23;;
5303;SDS011;2674;49.722;10.892;2022-10-16T05:08:26;7.83;;;2.47;;
5303;SDS011;2674;49.722;10.892;2022-10-16T05:10:52;4.87;;;3.00;;
5303;SDS011;2674;49.722;10.892;2022-10-16T05:13:18;3.33;;;2.63;;
5303;SDS011;2674;49.722;10.892;2022-10-16T05:15:46;2.40;;;2.30;;
5303;SDS011;2674;49.722;10.892;2022-10-16T05:18:13;2.73;;;2.53;;
5303;SDS011;2674;49.722;10.892;2022-10-16T05:20:39;2.53;;;2.43;;
5303;SDS011;2674;49.722;10.892;2022-10-16T05:23:05;11.10;;;2.23;;
5303;SDS011;2674;49.722;10.892;2022-10-16T05:25:31;5.40;;;2.43;;
5303;SDS011;2674;49.722;10.892;2022-10-16T05:27:57;6.80;;;2.40;;
5303;SDS011;2674;49.722;10.892;2022-10-16T05:30:23;5.37;;;2.23;;
5303;SDS011;2674;49.722;10.892;2022-10-16T05:32:49;6.50;;;2.23;;
5303;SDS011;2674;49.722;10.892;2022-10-16T05:35:16;3.97;;;2.57;;
5303;SDS011;2674;49.722;10.892;2022-10-16T05:37:43;5.90;;;2.10;;
5303;SDS011;2674;49.722;10.892;2022-10-16T05:40:09;7.53;;;2.70;;
5303;SDS011;2674;49.722;10.892;2022-10-16T05:42:35;7.00;;;2.23;;
5303;SDS011;2674;49.722;10.892;2022-10-16T05:45:02;2.13;;;2.00;;
5303;SDS011;2674;49.722;10.892;2022-10-16T05:47:29;2.00;;;1.90;;
5303;SDS011;2674;49.722;10.892;2022-10-16T05:49:55;9.07;;;2.00;;
5303;SDS011;2674;49.722;10.892;2022-10-16T05:52:21;7.57;;;2.53;;
5303;SDS011;2674;49.722;10.892;2022-10-16T05:54:47;5.50;;;2.40;;
5303;SDS011;2674;49.722;10.892;2022-10-16T05:57:13;2.80;;;2.60;;
5303;SDS011;2674;49.722;10.892;2022-10-16T05:59:38;4.47;;;3.07;;
5303;SDS011;2674;49.722;10.892;2022-10-16T06:02:05;15.83;;;3.60;;
5303;SDS011;2674;49.722;10.892;2022-10-16T06:04:31;3.43;;;2.60;;
5303;SDS011;2674;49.722;10.892;2022-10-16T06:06:59;4.50;;;2.47;;
5303;SDS011;2674;49.722;10.892;2022-10-16T06:09:25;2.70;;;2.50;;
5303;SDS011;2674;49.722;10.892;2022-10-16T06:11:51;2.17;;;2.03;;
5303;SDS011;2674;49.722;10.892;2022-10-16T06:14:17;2.90;;;2.20;;
5303;SDS011;2674;49.722;10.892;2022-10-16T06:16:43;6.57;;;2.03;;
5303;SDS011;2674;49.722;10.892;2022-10-16T06:19:09;5.50;;;2.50;;
5303;SDS011;2674;49.722;10.892;2022-10-16T06:21:35;4.03;;;2.67;;
5303;SDS011;2674;49.722;10.892;2022-10-16T06:24:01;5.60;;;2.60;;
5303;SDS011;2674;49.722;10.892;2022-10-16T06:26:28;3.87;;;3.57;;
5303;SDS011;2674;49.722;10.892;2022-10-16T06:28:56;8.53;;;5.00;;
5303;SDS011;2674;49.722;10.892;2022-10-16T06:31:23;6.03;;;3.80;;
5303;SDS011;2674;49.722;10.892;2022-10-16T06:33:56;8.83;;;3.13;;
5303;SDS011;2674;49.722;10.892;2022-10-16T06:36:22;8.43;;;3.17;;
5303;SDS011;2674;49.722;10.892;2022-10-16T06:38:49;3.70;;;3.27;;
5303;SDS011;2674;49.722;10.892;2022-10-16T06:41:16;7.70;;;2.97;;
5303;SDS011;2674;49.722;10.892;2022-10-16T06:43:44;3.67;;;2.87;;
5303;SDS011;2674;49.722;10.892;2022-10-16T06:46:13;6.50;;;2.57;;
5303;SDS011;2674;49.722;10.892;2022-10-16T06:48:40;3.27;;;2.50;;
5303;SDS011;2674;49.722;10.892;2022-10-16T06:51:10;4.07;;;3.20;;
5303;SDS011;2674;49.722;10.892;2022-10-16T06:53:42;3.60;;;3.03;;
5303;SDS011;2674;49.722;10.892;2022-10-16T06:56:14;2.83;;;2.63;;
5303;SDS011;2674;49.722;10.892;2022-10-16T06:58:44;3.43;;;3.13;;
5303;SDS011;2674;49.722;10.892;2022-10-16T07:01:11;3.37;;;2.93;;
5303;SDS011;2674;49.722;10.892;2022-10-16T07:03:42;6.47;;;3.30;;
5303;SDS011;2674;49.722;10.892;2022-10-16T07:06:10;6.07;;;3.00;;
5303;SDS011;2674;49.722;10.892;2022-10-16T07:08:39;3.33;;;3.03;;
5303;SDS011;2674;49.722;10.892;2022-10-16T07:11:07;3.30;;;3.00;;
5303;SDS011;2674;49.722;10.892;2022-10-16T07:13:35;3.20;;;2.90;;
5303;SDS011;2674;49.722;10.892;2022-10-16T07:18:32;6.37;;;3.50;;
5303;SDS011;2674;49.722;10.892;2022-10-16T07:23:37;6.83;;;2.70;;
5303;SDS011;2674;49.722;10.892;2022-10-16T07:26:04;5.23;;;2.40;;
5303;SDS011;2674;49.722;10.892;2022-10-16T07:28:31;3.80;;;2.37;;
5303;SDS011;2674;49.722;10.892;2022-10-16T07:31:07;4.70;;;2.87;;
5303;SDS011;2674;49.722;10.892;2022-10-16T07:33:39;2.70;;;2.50;;
5303;SDS011;2674;49.722;10.892;2022-10-16T07:36:07;3.33;;;2.67;;
5303;SDS011;2674;49.722;10.892;2022-10-16T07:38:33;4.93;;;2.07;;
5303;SDS011;2674;49.722;10.892;2022-10-16T07:41:00;6.63;;;2.87;;
5303;SDS011;2674;49.722;10.892;2022-10-16T07:43:30;3.37;;;2.20;;
5303;SDS011;2674;49.722;10.892;2022-10-16T07:45:57;3.73;;;2.53;;
5303;SDS011;2674;49.722;10.892;2022-10-16T07:48:23;9.57;;;3.67;;
5303;SDS011;2674;49.722;10.892;2022-10-16T07:50:56;5.70;;;2.80;;
5303;SDS011;2674;49.722;10.892;2022-10-16T07:53:23;4.63;;;2.67;;
5303;SDS011;2674;49.722;10.892;2022-10-16T07:55:49;5.13;;;3.00;;
5303;SDS011;2674;49.722;10.892;2022-10-16T07:58:15;7.30;;;3.23;;
5303;SDS011;2674;49.722;10.892;2022-10-16T08:00:41;10.13;;;2.77;;
5303;SDS011;2674;49.722;10.892;2022-10-16T08:03:07;8.80;;;7.10;;
5303;SDS011;2674;49.722;10.892;2022-10-16T08:05:33;6.13;;;4.50;;
5303;SDS011;2674;49.722;10.892;2022-10-16T08:08:00;3.90;;;3.50;;
5303;SDS011;2674;49.722;10.892;2022-10-16T08:10:28;6.53;;;3.57;;
5303;SDS011;2674;49.722;10.892;2022-10-16T08:12:54;5.20;;;3.03;;
5303;SDS011;2674;49.722;10.892;2022-10-16T08:15:20;5.20;;;3.40;;
5303;SDS011;2674;49.722;10.892;2022-10-16T08:18:00;4.63;;;2.53;;
5303;SDS011;2674;49.722;10.892;2022-10-16T08:20:27;9.43;;;2.43;;
5303;SDS011;2674;49.722;10.892;2022-10-16T08:22:54;4.10;;;2.40;;
5303;SDS011;2674;49.722;10.892;2022-10-16T08:25:21;2.57;;;2.30;;
5303;SDS011;2674;49.722;10.892;2022-10-16T08:27:48;2.30;;;2.20;;
5303;SDS011;2674;49.722;10.892;2022-10-16T08:30:14;3.43;;;2.70;;
5303;SDS011;2674;49.722;10.892;2022-10-16T08:32:41;8.90;;;2.17;;
5303;SDS011;2674;49.722;10.892;2022-10-16T08:35:08;5.20;;;2.43;;
5303;SDS011;2674;49.722;10.892;2022-10-16T08:37:34;3.33;;;2.33;;
5303;SDS011;2674;49.722;10.892;2022-10-16T08:40:01;2.90;;;2.07;;
5303;SDS011;2674;49.722;10.892;2022-10-16T08:42:43;4.13;;;2.30;;
5303;SDS011;2674;49.722;10.892;2022-10-16T08:48:45;8.87;;;3.13;;
5303;SDS011;2674;49.722;10.892;2022-10-16T08:51:35;2.90;;;1.80;;
5303;SDS011;2674;49.722;10.892;2022-10-16T08:54:36;2.53;;;2.27;;
5303;SDS011;2674;49.722;10.892;2022-10-16T08:57:09;3.73;;;2.53;;
5303;SDS011;2674;49.722;10.892;2022-10-16T08:59:42;5.30;;;2.53;;
5303;SDS011;2674;49.722;10.892;2022-10-16T09:02:22;3.37;;;2.53;;
5303;SDS011;2674;49.722;10.892;2022-10-16T09:11:06;3.07;;;2.43;;
5303;SDS011;2674;49.722;10.892;2022-10-16T09:16:29;3.47;;;2.40;;
5303;SDS011;2674;49.722;10.892;2022-10-16T09:19:05;2.93;;;2.37;;
5303;SDS011;2674;49.722;10.892;2022-10-16T09:21:46;3.37;;;2.50;;
5303;SDS011;2674;49.722;10.892;2022-10-16T09:24:16;7.93;;;2.57;;
5303;SDS011;2674;49.722;10.892;2022-10-16T09:26:44;2.73;;;2.53;;
5303;SDS011;2674;49.722;10.892;2022-10-16T09:29:18;4.23;;;2.73;;
5303;SDS011;2674;49.722;10.892;2022-10-16T09:31:46;2.17;;;2.03;;
5303;SDS011;2674;49.722;10.892;2022-10-16T09:34:25;2.60;;;2.40;;
5303;SDS011;2674;49.722;10.892;2022-10-16T09:36:59;8.47;;;2.23;;
5303;SDS011;2674;49.722;10.892;2022-10-16T09:39:28;4.90;;;2.30;;
5303;SDS011;2674;49.722;10.892;2022-10-16T09:41:53;2.10;;;2.00;;
5303;SDS011;2674;49.722;10.892;2022-10-16T09:44:23;2.50;;;2.20;;
5303;SDS011;2674;49.722;10.892;2022-10-16T09:47:14;3.23;;;2.30;;
5303;SDS011;2674;49.722;10.892;2022-10-16T09:49:49;3.00;;;2.80;;
5303;SDS011;2674;49.722;10.892;2022-10-16T09:52:21;4.17;;;1.97;;
5303;SDS011;2674;49.722;10.892;2022-10-16T09:54:58;2.87;;;2.23;;
5303;SDS011;2674;49.722;10.892;2022-10-16T09:57:25;10.37;;;2.13;;
5303;SDS011;2674;49.722;10.892;2022-10-16T09:59:52;6.07;;;3.00;;
5303;SDS011;2674;49.722;10.892;2022-10-16T10:02:35;3.53;;;2.33;;
5303;SDS011;2674;49.722;10.892;2022-10-16T10:07:56;1.80;;;1.70;;
5303;SDS011;2674;49.722;10.892;2022-10-16T10:10:32;2.17;;;2.07;;
5303;SDS011;2674;49.722;10.892;2022-10-16T10:13:02;3.10;;;2.50;;
5303;SDS011;2674;49.722;10.892;2022-10-16T10:15:33;8.73;;;2.70;;
5303;SDS011;2674;49.722;10.892;2022-10-16T10:18:00;5.80;;;2.00;;
5303;SDS011;2674;49.722;10.892;2022-10-16T10:22:57;3.10;;;2.30;;
5303;SDS011;2674;49.722;10.892;2022-10-16T10:36:42;7.37;;;1.90;;
5303;SDS011;2674;49.722;10.892;2022-10-16T10:47:39;6.63;;;1.80;;
5303;SDS011;2674;49.722;10.892;2022-10-16T10:55:48;9.63;;;2.33;;
5303;SDS011;2674;49.722;10.892;2022-10-16T11:06:46;3.17;;;2.80;;
5303;SDS011;2674;49.722;10.892;2022-10-16T11:09:18;4.73;;;2.07;;
5303;SDS011;2674;49.722;10.892;2022-10-16T11:11:59;5.50;;;2.87;;
5303;SDS011;2674;49.722;10.892;2022-10-16T11:14:36;4.80;;;2.20;;
5303;SDS011;2674;49.722;10.892;2022-10-16T11:17:25;2.30;;;2.10;;
5303;SDS011;2674;49.722;10.892;2022-10-16T11:22:56;2.63;;;2.30;;
5303;SDS011;2674;49.722;10.892;2022-10-16T11:25:33;4.17;;;2.10;;
5303;SDS011;2674;49.722;10.892;2022-10-16T11:28:05;2.27;;;1.93;;
5303;SDS011;2674;49.722;10.892;2022-10-16T11:30:53;4.80;;;2.30;;
5303;SDS011;2674;49.722;10.892;2022-10-16T11:38:55;4.67;;;2.17;;
5303;SDS011;2674;49.722;10.892;2022-10-16T11:42:02;4.20;;;1.70;;
5303;SDS011;2674;49.722;10.892;2022-10-16T11:49:46;3.13;;;2.37;;
5303;SDS011;2674;49.722;10.892;2022-10-16T11:57:26;5.00;;;2.40;;
5303;SDS011;2674;49.722;10.892;2022-10-16T12:00:05;3.40;;;2.50;;
5303;SDS011;2674;49.722;10.892;2022-10-16T12:05:31;9.27;;;2.80;;
5303;SDS011;2674;49.722;10.892;2022-10-16T12:08:09;8.80;;;2.23;;
5303;SDS011;2674;49.722;10.892;2022-10-16T12:10:37;9.93;;;2.80;;
5303;SDS011;2674;49.722;10.892;2022-10-16T12:13:25;5.07;;;2.00;;
5303;SDS011;2674;49.722;10.892;2022-10-16T12:18:49;7.13;;;3.00;;
5303;SDS011;2674;49.722;10.892;2022-10-16T12:21:34;4.70;;;2.00;;
5303;SDS011;2674;49.722;10.892;2022-10-16T12:24:01;4.17;;;1.80;;
5303;SDS011;2674;49.722;10.892;2022-10-16T12:26:32;5.50;;;3.10;;
5303;SDS011;2674;49.722;10.892;2022-10-16T12:29:20;3.97;;;2.23;;
5303;SDS011;2674;49.722;10.892;2022-10-16T12:31:48;2.33;;;2.13;;
5303;SDS011;2674;49.722;10.892;2022-10-16T12:34:37;5.17;;;2.00;;
5303;SDS011;2674;49.722;10.892;2022-10-16T12:37:08;3.83;;;2.50;;
5303;SDS011;2674;49.722;10.892;2022-10-16T12:39:34;7.10;;;2.30;;
5303;SDS011;2674;49.722;10.892;2022-10-16T12:42:06;6.30;;;1.80;;
5303;SDS011;2674;49.722;10.892;2022-10-16T12:44:53;3.23;;;2.10;;
5303;SDS011;2674;49.722;10.892;2022-10-16T12:49:58;2.63;;;2.03;;
5303;SDS011;2674;49.722;10.892;2022-10-16T12:52:29;2.97;;;2.10;;
5303;SDS011;2674;49.722;10.892;2022-10-16T12:55:02;6.30;;;2.10;;
5303;SDS011;2674;49.722;10.892;2022-10-16T12:57:36;2.30;;;1.97;;
5303;SDS011;2674;49.722;10.892;2022-10-16T13:03:27;2.67;;;2.47;;
5303;SDS011;2674;49.722;10.892;2022-10-16T13:06:27;3.93;;;2.57;;
5303;SDS011;2674;49.722;10.892;2022-10-16T13:30:29;2.03;;;1.77;;
5303;SDS011;2674;49.722;10.892;2022-10-16T13:33:01;5.87;;;2.53;;
5303;SDS011;2674;49.722;10.892;2022-10-16T13:35:31;1.90;;;1.70;;
5303;SDS011;2674;49.722;10.892;2022-10-16T13:38:14;7.63;;;2.40;;
5303;SDS011;2674;49.722;10.892;2022-10-16T13:40:53;2.10;;;1.90;;
5303;SDS011;2674;49.722;10.892;2022-10-16T13:43:23;3.30;;;1.80;;
5303;SDS011;2674;49.722;10.892;2022-10-16T13:46:35;4.70;;;1.37;;
5303;SDS011;2674;49.722;10.892;2022-10-16T13:48:44;7.67;;;1.60;;
5303;SDS011;2674;49.722;10.892;2022-10-16T13:53:41;1.50;;;1.40;;
5303;SDS011;2674;49.722;10.892;2022-10-16T13:56:12;3.27;;;2.03;;
5303;SDS011;2674;49.722;10.892;2022-10-16T13:58:40;6.00;;;1.20;;
5303;SDS011;2674;49.722;10.892;2022-10-16T14:01:19;4.20;;;1.63;;
5303;SDS011;2674;49.722;10.892;2022-10-16T14:03:49;4.50;;;1.63;;
5303;SDS011;2674;49.722;10.892;2022-10-16T14:06:17;2.50;;;1.90;;
5303;SDS011;2674;49.722;10.892;2022-10-16T14:08:50;2.10;;;1.60;;
5303;SDS011;2674;49.722;10.892;2022-10-16T14:11:22;2.07;;;1.50;;
5303;SDS011;2674;49.722;10.892;2022-10-16T14:13:49;2.13;;;1.93;;
5303;SDS011;2674;49.722;10.892;2022-10-16T14:16:16;3.17;;;1.50;;
5303;SDS011;2674;49.722;10.892;2022-10-16T14:18:55;2.33;;;1.40;;
5303;SDS011;2674;49.722;10.892;2022-10-16T14:21:26;2.00;;;1.67;;
5303;SDS011;2674;49.722;10.892;2022-10-16T14:23:53;6.53;;;2.10;;
5303;SDS011;2674;49.722;10.892;2022-10-16T14:26:22;4.77;;;1.77;;
5303;SDS011;2674;49.722;10.892;2022-10-16T14:28:51;3.07;;;1.20;;
5303;SDS011;2674;49.722;10.892;2022-10-16T14:31:33;2.40;;;1.63;;
5303;SDS011;2674;49.722;10.892;2022-10-16T14:34:00;2.00;;;1.60;;
5303;SDS011;2674;49.722;10.892;2022-10-16T14:36:27;6.13;;;1.60;;
5303;SDS011;2674;49.722;10.892;2022-10-16T14:38:57;2.83;;;1.83;;
5303;SDS011;2674;49.722;10.892;2022-10-16T14:41:23;3.60;;;1.90;;
5303;SDS011;2674;49.722;10.892;2022-10-16T14:43:51;1.57;;;1.47;;
5303;SDS011;2674;49.722;10.892;2022-10-16T14:46:21;1.80;;;1.70;;
5303;SDS011;2674;49.722;10.892;2022-10-16T14:48:57;6.53;;;1.43;;
5303;SDS011;2674;49.722;10.892;2022-10-16T14:51:33;6.80;;;1.57;;
5303;SDS011;2674;49.722;10.892;2022-10-16T14:53:59;2.00;;;1.80;;
5303;SDS011;2674;49.722;10.892;2022-10-16T14:56:48;4.77;;;1.67;;
5303;SDS011;2674;49.722;10.892;2022-10-16T14:59:30;1.67;;;1.57;;
5303;SDS011;2674;49.722;10.892;2022-10-16T15:04:53;4.63;;;2.00;;
5303;SDS011;2674;49.722;10.892;2022-10-16T15:07:19;2.10;;;1.80;;
5303;SDS011;2674;49.722;10.892;2022-10-16T15:09:45;1.63;;;1.53;;
5303;SDS011;2674;49.722;10.892;2022-10-16T15:12:11;2.87;;;1.60;;
5303;SDS011;2674;49.722;10.892;2022-10-16T15:14:37;4.87;;;1.90;;
5303;SDS011;2674;49.722;10.892;2022-10-16T15:17:03;4.40;;;1.67;;
5303;SDS011;2674;49.722;10.892;2022-10-16T15:19:32;3.13;;;1.90;;
5303;SDS011;2674;49.722;10.892;2022-10-16T15:21:59;7.07;;;2.20;;
5303;SDS011;2674;49.722;10.892;2022-10-16T15:24:25;5.57;;;2.03;;
5303;SDS011;2674;49.722;10.892;2022-10-16T15:26:51;5.80;;;1.60;;
5303;SDS011;2674;49.722;10.892;2022-10-16T15:29:16;4.10;;;1.90;;
5303;SDS011;2674;49.722;10.892;2022-10-16T15:31:43;3.37;;;2.13;;
5303;SDS011;2674;49.722;10.892;2022-10-16T15:34:09;4.07;;;1.40;;
5303;SDS011;2674;49.722;10.892;2022-10-16T15:36:36;2.50;;;2.30;;
5303;SDS011;2674;49.722;10.892;2022-10-16T15:39:21;1.90;;;1.80;;
5303;SDS011;2674;49.722;10.892;2022-10-16T15:41:47;4.00;;;1.93;;
5303;SDS011;2674;49.722;10.892;2022-10-16T15:44:17;2.00;;;1.90;;
5303;SDS011;2674;49.722;10.892;2022-10-16T15:46:43;2.03;;;1.80;;
5303;SDS011;2674;49.722;10.892;2022-10-16T15:49:09;2.80;;;1.87;;
5303;SDS011;2674;49.722;10.892;2022-10-16T15:51:41;8.83;;;2.03;;
5303;SDS011;2674;49.722;10.892;2022-10-16T15:54:07;5.97;;;2.40;;
5303;SDS011;2674;49.722;10.892;2022-10-16T15:56:34;4.10;;;1.70;;
5303;SDS011;2674;49.722;10.892;2022-10-16T15:59:02;3.70;;;1.80;;
5303;SDS011;2674;49.722;10.892;2022-10-16T16:01:27;3.13;;;1.60;;
5303;SDS011;2674;49.722;10.892;2022-10-16T16:03:58;8.30;;;2.07;;
5303;SDS011;2674;49.722;10.892;2022-10-16T16:06:24;3.07;;;2.00;;
5303;SDS011;2674;49.722;10.892;2022-10-16T16:08:50;2.40;;;1.90;;
5303;SDS011;2674;49.722;10.892;2022-10-16T16:11:17;9.10;;;1.90;;
5303;SDS011;2674;49.722;10.892;2022-10-16T16:13:43;8.97;;;2.17;;
5303;SDS011;2674;49.722;10.892;2022-10-16T16:16:11;4.87;;;2.60;;
5303;SDS011;2674;49.722;10.892;2022-10-16T16:18:38;4.07;;;2.27;;
5303;SDS011;2674;49.722;10.892;2022-10-16T16:21:04;4.30;;;2.17;;
5303;SDS011;2674;49.722;10.892;2022-10-16T16:23:31;7.50;;;1.90;;
5303;SDS011;2674;49.722;10.892;2022-10-16T16:28:30;1.80;;;1.70;;
5303;SDS011;2674;49.722;10.892;2022-10-16T16:30:55;2.07;;;1.93;;
5303;SDS011;2674;49.722;10.892;2022-10-16T16:33:21;6.27;;;2.13;;
5303;SDS011;2674;49.722;10.892;2022-10-16T16:35:48;4.37;;;2.90;;
5303;SDS011;2674;49.722;10.892;2022-10-16T16:38:13;3.27;;;1.87;;
5303;SDS011;2674;49.722;10.892;2022-10-16T16:40:39;2.10;;;1.90;;
5303;SDS011;2674;49.722;10.892;2022-10-16T16:43:05;2.40;;;1.77;;
5303;SDS011;2674;49.722;10.892;2022-10-16T16:45:34;2.47;;;2.27;;
5303;SDS011;2674;49.722;10.892;2022-10-16T16:48:00;2.70;;;2.50;;
5303;SDS011;2674;49.722;10.892;2022-10-16T16:50:26;5.43;;;2.67;;
5303;SDS011;2674;49.722;10.892;2022-10-16T16:52:52;2.30;;;2.07;;
5303;SDS011;2674;49.722;10.892;2022-10-16T16:55:21;10.00;;;2.70;;
5303;SDS011;2674;49.722;10.892;2022-10-16T16:57:50;6.10;;;2.90;;
5303;SDS011;2674;49.722;10.892;2022-10-16T17:00:16;6.23;;;2.63;;
5303;SDS011;2674;49.722;10.892;2022-10-16T17:02:41;5.30;;;2.83;;
5303;SDS011;2674;49.722;10.892;2022-10-16T17:07:42;6.70;;;2.70;;
5303;SDS011;2674;49.722;10.892;2022-10-16T17:10:08;5.73;;;2.90;;
5303;SDS011;2674;49.722;10.892;2022-10-16T17:12:35;4.70;;;3.03;;
5303;SDS011;2674;49.722;10.892;2022-10-16T17:15:01;2.83;;;2.50;;
5303;SDS011;2674;49.722;10.892;2022-10-16T17:17:27;6.83;;;4.03;;
5303;SDS011;2674;49.722;10.892;2022-10-16T17:19:52;7.40;;;3.43;;
5303;SDS011;2674;49.722;10.892;2022-10-16T17:22:18;5.07;;;3.27;;
5303;SDS011;2674;49.722;10.892;2022-10-16T17:24:47;5.87;;;2.80;;
5303;SDS011;2674;49.722;10.892;2022-10-16T17:27:14;3.40;;;3.00;;
5303;SDS011;2674;49.722;10.892;2022-10-16T17:29:41;5.33;;;3.40;;